Time;durP1;ratioP1;P1;durP2;ratioP2;P2;SDS_P1;SDS_P2;PMS_P1;PMS_P2;Temp;Humidity;BMP_temperature;BMP_pressure;BME280_temperature;BME280_humidity;BME280_pressure;Samples;Min_cycle;Max_cycle;Signal;HPM_P1;HPM_P2
2022/07/20 00:02:22;;;;;;;5.03;2.67;;;;;;;25.32;44.64;101149.91;5093642;28;20023;-61
2022/07/20 00:04:49;;;;;;;5.50;2.53;;;;;;;25.32;44.73;101156.09;5093489;28;20525;-60
2022/07/20 00:07:14;;;;;;;5.07;2.72;;;;;;;25.32;44.70;101161.41;5092321;28;20628;-60
2022/07/20 00:12:24;;;;;;;4.32;2.47;;;;;;;25.29;44.53;101150.25;5093362;28;20770;-60
2022/07/20 00:14:49;;;;;;;4.97;2.50;;;;;;;25.32;44.76;101160.59;5092905;28;20032;-60
2022/07/20 00:17:17;;;;;;;6.00;2.73;;;;;;;25.32;44.64;101148.06;5092991;28;20483;-60
2022/07/20 00:19:42;;;;;;;4.65;2.75;;;;;;;25.32;44.31;101156.09;5092761;28;20347;-60
2022/07/20 00:22:08;;;;;;;4.00;2.35;;;;;;;25.32;44.36;101158.75;5092893;28;20477;-60
2022/07/20 00:24:36;;;;;;;4.47;2.70;;;;;;;25.31;44.73;101145.56;5093222;28;20460;-60
2022/07/20 00:27:01;;;;;;;4.60;2.60;;;;;;;25.32;44.20;101155.25;5092144;28;20077;-62
2022/07/20 00:29:27;;;;;;;6.20;2.78;;;;;;;25.31;44.29;101151.75;5093104;28;20024;-60
2022/07/20 00:31:52;;;;;;;4.05;2.40;;;;;;;25.31;44.49;101154.44;5093143;28;20024;-60
2022/07/20 00:34:17;;;;;;;4.85;2.95;;;;;;;25.31;44.42;101162.44;5092088;28;20020;-60
2022/07/20 00:36:43;;;;;;;5.53;2.78;;;;;;;25.30;44.59;101192.75;5093099;28;20020;-60
2022/07/20 00:39:08;;;;;;;5.67;2.50;;;;;;;25.30;44.50;101230.09;5092394;28;20101;-60
2022/07/20 00:41:33;;;;;;;4.03;2.63;;;;;;;25.29;44.22;101164.44;5092328;28;20072;-60
2022/07/20 00:44:10;;;;;;;3.90;2.47;;;;;;;25.31;44.26;101166.91;5092565;28;20159;-61
2022/07/20 00:46:38;;;;;;;4.13;2.63;;;;;;;25.32;44.12;101171.25;5093026;28;20389;-60
2022/07/20 00:49:05;;;;;;;4.32;2.50;;;;;;;25.31;44.07;101178.44;5091611;28;20017;-60
2022/07/20 00:51:30;;;;;;;4.78;2.83;;;;;;;25.31;43.79;101209.59;5092945;28;20020;-60
2022/07/20 00:53:57;;;;;;;4.00;2.55;;;;;;;25.32;43.69;101198.75;5092679;28;20034;-60
2022/07/20 00:56:25;;;;;;;4.68;2.78;;;;;;;25.32;43.49;101193.44;5092021;28;20028;-60
2022/07/20 00:58:51;;;;;;;5.57;3.03;;;;;;;25.31;44.00;101191.78;5092773;28;20028;-60
2022/07/20 01:01:16;;;;;;;7.90;3.05;;;;;;;25.32;43.74;101222.78;5093535;28;20455;-60
2022/07/20 01:03:43;;;;;;;5.57;2.90;;;;;;;25.33;43.69;101188.94;5096092;28;20024;-60
2022/07/20 01:06:09;;;;;;;4.30;2.58;;;;;;;25.33;43.43;101187.09;5096440;28;20111;-60
2022/07/20 01:08:38;;;;;;;3.95;2.70;;;;;;;25.31;43.58;101181.09;5096902;28;20048;-59
2022/07/20 01:11:03;;;;;;;5.35;3.00;;;;;;;25.31;43.49;101186.44;5095750;28;20024;-60
2022/07/20 01:13:29;;;;;;;5.47;2.80;;;;;;;25.30;43.88;101181.28;5096582;28;20093;-60
2022/07/20 01:15:55;;;;;;;5.57;2.78;;;;;;;25.32;43.81;101179.25;5095706;28;20061;-60
2022/07/20 01:18:23;;;;;;;5.13;2.80;;;;;;;25.31;43.94;101181.09;5096588;28;20089;-59
2022/07/20 01:21:00;;;;;;;5.47;2.88;;;;;;;25.30;43.47;101182.09;5096478;28;20046;-59
2022/07/20 01:23:25;;;;;;;4.68;2.83;;;;;;;25.31;43.54;101185.59;5095954;28;20020;-59
2022/07/20 01:25:51;;;;;;;4.18;2.58;;;;;;;25.29;43.68;101175.09;5096595;28;20536;-60
2022/07/20 01:28:16;;;;;;;5.03;3.10;;;;;;;25.32;43.80;101172.09;5096179;28;20020;-60
2022/07/20 01:30:41;;;;;;;5.00;2.90;;;;;;;25.31;43.96;101169.59;5095513;28;20032;-60
2022/07/20 01:33:07;;;;;;;4.50;2.67;;;;;;;25.29;43.99;101164.44;5095949;28;20023;-60
2022/07/20 01:35:32;;;;;;;3.95;2.70;;;;;;;25.31;43.61;101167.78;5096273;28;20099;-60
2022/07/20 01:37:58;;;;;;;4.15;2.78;;;;;;;25.31;43.67;101167.78;5095119;28;20426;-60
2022/07/20 01:40:23;;;;;;;5.18;3.13;;;;;;;25.31;43.94;101172.25;5096232;28;20020;-60
2022/07/20 01:42:49;;;;;;;5.65;2.83;;;;;;;25.32;43.61;101171.25;5096346;28;20039;-59
2022/07/20 01:45:14;;;;;;;4.28;2.92;;;;;;;25.32;43.49;101166.75;5094944;28;20493;-60
2022/07/20 01:47:40;;;;;;;5.22;2.80;;;;;;;25.32;43.63;101171.25;5096007;28;20024;-60
2022/07/20 01:50:06;;;;;;;5.47;2.78;;;;;;;25.32;43.66;101174.75;5095809;28;20028;-60
2022/07/20 01:52:31;;;;;;;4.68;2.97;;;;;;;25.33;43.60;101178.28;5095537;28;20055;-60
2022/07/20 01:54:56;;;;;;;4.50;2.78;;;;;;;25.32;43.88;101180.09;5096321;28;20056;-62
2022/07/20 01:57:21;;;;;;;5.93;2.90;;;;;;;25.32;43.48;101181.94;5096014;28;20140;-59
2022/07/20 01:59:50;;;;;;;6.37;3.10;;;;;;;25.32;43.87;101195.28;5095639;28;20264;-60
2022/07/20 02:02:15;;;;;;;4.75;2.88;;;;;;;25.30;43.88;101194.59;5095484;28;20287;-59
2022/07/20 02:04:40;;;;;;;5.43;3.13;;;;;;;25.31;43.60;101217.59;5095911;28;20410;-59
2022/07/20 02:07:08;;;;;;;4.93;3.00;;;;;;;25.32;43.68;101229.94;5094613;28;20028;-59
2022/07/20 02:09:33;;;;;;;5.13;3.00;;;;;;;25.32;43.29;101235.28;5095687;28;20759;-60
2022/07/20 02:11:58;;;;;;;6.57;3.10;;;;;;;25.32;43.79;101243.28;5094642;28;20055;-60
2022/07/20 02:14:24;;;;;;;5.17;3.10;;;;;;;25.33;43.72;101236.97;5095117;28;20277;-60
2022/07/20 02:16:49;;;;;;;5.35;3.00;;;;;;;25.33;43.71;101248.47;5095454;28;20279;-59
2022/07/20 02:19:17;;;;;;;5.65;3.00;;;;;;;25.33;43.24;101231.63;5094553;28;20032;-60
2022/07/20 02:21:42;;;;;;;4.32;2.85;;;;;;;25.32;43.35;101230.78;5095523;28;20028;-60
2022/07/20 02:24:08;;;;;;;4.53;3.00;;;;;;;25.34;43.16;101230.59;5095085;28;20161;-60
2022/07/20 02:26:33;;;;;;;6.07;3.38;;;;;;;25.32;42.87;101237.94;5094845;28;20273;-59
2022/07/20 02:28:58;;;;;;;6.03;3.30;;;;;;;25.33;42.86;101232.44;5094921;28;20043;-59
2022/07/20 02:31:24;;;;;;;6.25;3.42;;;;;;;25.33;43.25;101232.44;5095171;28;20048;-60
2022/07/20 02:33:51;;;;;;;5.80;3.30;;;;;;;25.33;42.92;101228.97;5094456;28;20124;-60
2022/07/20 02:36:16;;;;;;;5.75;3.60;;;;;;;25.33;43.28;101221.78;5095029;28;20021;-59
2022/07/20 02:38:42;;;;;;;5.00;3.65;;;;;;;25.32;43.04;101228.09;5095212;28;20153;-59
2022/07/20 02:41:08;;;;;;;5.88;3.42;;;;;;;25.32;42.90;101232.63;5093921;28;20024;-59
2022/07/20 02:43:33;;;;;;;5.50;3.60;;;;;;;25.33;43.41;101244.97;5095107;28;20039;-58
2022/07/20 02:45:58;;;;;;;6.63;4.25;;;;;;;25.32;43.26;101240.63;5094540;28;20031;-58
2022/07/20 02:48:24;;;;;;;6.40;3.90;;;;;;;25.31;43.44;101238.94;5094144;28;20024;-58
2022/07/20 02:50:49;;;;;;;7.68;4.25;;;;;;;25.31;43.49;101238.94;5095044;28;20289;-58
2022/07/20 02:53:15;;;;;;;5.68;4.13;;;;;;;25.32;43.36;101243.28;5094664;28;20024;-59
2022/07/20 02:55:42;;;;;;;5.65;4.20;;;;;;;25.32;43.30;101230.78;5094045;28;20463;-59
2022/07/20 02:58:08;;;;;;;7.15;4.55;;;;;;;25.33;43.71;101235.13;5094499;28;20016;-58
2022/07/20 03:00:33;;;;;;;7.55;4.80;;;;;;;25.33;43.73;101235.13;5094660;28;20024;-59
2022/07/20 03:02:59;;;;;;;7.57;4.55;;;;;;;25.34;43.81;101243.94;5093727;28;20358;-59
2022/07/20 03:05:25;;;;;;;6.50;4.82;;;;;;;25.34;43.80;101262.63;5094778;28;20028;-58
2022/07/20 03:07:50;;;;;;;7.28;5.07;;;;;;;25.32;43.72;101246.78;5094507;28;20024;-58
2022/07/20 03:10:19;;;;;;;8.75;5.65;;;;;;;25.32;43.94;101252.13;5093473;28;20024;-58
2022/07/20 03:12:44;;;;;;;6.85;5.20;;;;;;;25.31;43.55;101246.94;5094252;28;20044;-58
2022/07/20 03:15:10;;;;;;;6.75;5.45;;;;;;;25.29;44.19;101232.94;5094125;28;20031;-58
2022/07/20 03:17:46;;;;;;;8.13;5.85;;;;;;;25.29;43.81;101228.47;5093497;28;20030;-60
2022/07/20 03:20:18;;;;;;;10.32;6.63;;;;;;;25.31;44.24;101247.78;5094326;28;20021;-58
2022/07/20 03:22:43;;;;;;;9.10;6.80;;;;;;;25.28;44.16;101237.44;5093360;28;20024;-58
2022/07/20 03:25:09;;;;;;;8.48;6.53;;;;;;;25.30;44.09;101253.28;5093208;28;20040;-59
2022/07/20 03:27:34;;;;;;;8.52;6.25;;;;;;;25.30;44.20;101263.97;5094149;28;20032;-59
2022/07/20 03:30:00;;;;;;;8.55;6.35;;;;;;;25.30;44.57;101262.13;5093159;28;20047;-58
2022/07/20 03:32:28;;;;;;;10.37;7.13;;;;;;;25.30;44.71;101274.63;5094247;28;20031;-58
2022/07/20 03:34:53;;;;;;;9.02;7.68;;;;;;;25.29;44.28;101287.16;5094076;28;20272;-59
2022/07/20 03:37:27;;;;;;;9.80;8.00;;;;;;;25.28;44.88;101276.63;5092858;28;20077;-58
2022/07/20 03:39:53;;;;;;;10.52;8.20;;;;;;;25.29;44.64;101294.28;5093847;28;21000;-59
2022/07/20 03:42:18;;;;;;;10.45;8.13;;;;;;;25.29;44.97;101294.28;5093462;28;20103;-58
2022/07/20 03:44:44;;;;;;;10.25;8.10;;;;;;;25.29;44.85;101296.97;5093339;28;20020;-58
2022/07/20 03:47:09;;;;;;;8.60;7.70;;;;;;;25.29;44.66;101300.47;5093644;28;20063;-58
2022/07/20 03:49:35;;;;;;;10.98;9.00;;;;;;;25.30;45.01;101303.97;5093961;28;20052;-58
2022/07/20 03:52:00;;;;;;;10.27;8.38;;;;;;;25.31;45.15;101311.81;5093085;28;20028;-58
2022/07/20 03:54:28;;;;;;;11.93;9.18;;;;;;;25.29;45.28;101321.81;5093766;28;20471;-58
2022/07/20 03:56:53;;;;;;;10.85;8.75;;;;;;;25.29;45.46;101327.16;5093583;28;20028;-58
2022/07/20 03:59:19;;;;;;;12.57;9.52;;;;;;;25.30;44.98;101341.31;5092682;28;20036;-58
2022/07/20 04:01:44;;;;;;;11.23;9.90;;;;;;;25.30;45.17;101336.81;5093634;28;20086;-58
2022/07/20 04:04:09;;;;;;;11.68;9.48;;;;;;;25.28;45.26;101335.31;5092772;28;20032;-58
2022/07/20 04:06:35;;;;;;;12.20;9.77;;;;;;;25.28;45.54;101343.31;5092655;28;20027;-58
2022/07/20 04:09:01;;;;;;;12.00;9.90;;;;;;;25.28;45.26;101345.97;5092977;28;20271;-59
2022/07/20 04:11:26;;;;;;;13.15;10.15;;;;;;;25.27;45.33;101342.44;5093176;28;20027;-59
2022/07/20 04:13:52;;;;;;;12.20;10.00;;;;;;;25.27;45.54;101342.44;5092797;28;20376;-59
2022/07/20 04:16:18;;;;;;;12.38;10.20;;;;;;;25.28;45.30;101345.97;5093184;28;20065;-59
2022/07/20 04:18:43;;;;;;;12.07;9.95;;;;;;;25.27;45.85;101350.44;5092427;28;20028;-59
2022/07/20 04:21:08;;;;;;;10.15;9.05;;;;;;;25.28;45.77;101359.31;5091310;28;20043;-58
2022/07/20 04:23:33;;;;;;;12.57;9.83;;;;;;;25.27;45.50;101353.09;5093151;28;20107;-59
2022/07/20 04:25:59;;;;;;;11.60;9.50;;;;;;;25.28;45.56;101353.97;5092006;28;20273;-59
2022/07/20 04:28:27;;;;;;;12.07;10.02;;;;;;;25.28;45.39;101357.47;5093293;28;20330;-59
2022/07/20 04:30:52;;;;;;;12.73;10.30;;;;;;;25.29;45.45;101358.31;5092990;28;20024;-59
2022/07/20 04:33:30;;;;;;;13.20;10.63;;;;;;;25.27;45.94;101366.44;5092011;28;20038;-59
2022/07/20 04:35:58;;;;;;;11.98;10.30;;;;;;;25.26;45.71;101363.94;5092755;28;20272;-59
2022/07/20 04:38:23;;;;;;;11.70;10.27;;;;;;;25.28;45.56;101367.31;5092865;28;20426;-59
2022/07/20 04:40:49;;;;;;;12.20;9.67;;;;;;;25.29;45.39;101369.84;5092266;28;20028;-59
2022/07/20 04:43:14;;;;;;;14.13;10.43;;;;;;;25.27;45.96;101376.28;5092549;28;20280;-59
2022/07/20 04:45:39;;;;;;;13.05;10.07;;;;;;;25.29;45.73;101382.31;5092956;28;20268;-59
2022/07/20 04:48:05;;;;;;;12.43;10.83;;;;;;;25.27;45.92;101385.09;5091763;28;20028;-60
2022/07/20 04:50:30;;;;;;;12.52;10.82;;;;;;;25.28;46.18;101391.31;5092633;28;20028;-59
2022/07/20 04:52:55;;;;;;;18.80;16.53;;;;;;;25.19;48.26;101386.91;5092537;28;20035;-59
2022/07/20 04:55:21;;;;;;;19.58;15.20;;;;;;;25.05;47.94;101389.16;5091815;28;20330;-59
2022/07/20 04:57:46;;;;;;;19.95;17.05;;;;;;;24.91;48.66;101395.91;5092753;28;20098;-59
2022/07/20 05:00:12;;;;;;;18.53;16.50;;;;;;;24.77;49.29;101391.16;5092625;28;20099;-59
2022/07/20 05:02:37;;;;;;;18.70;16.42;;;;;;;24.65;49.69;101390.56;5091969;28;20283;-59
2022/07/20 05:05:04;;;;;;;23.17;17.03;;;;;;;24.52;50.21;101384.75;5092318;28;20116;-59
2022/07/20 05:07:29;;;;;;;18.83;16.00;;;;;;;24.41;50.22;101381.34;5092473;28;20276;-58
2022/07/20 05:10:00;;;;;;;22.20;16.20;;;;;;;24.33;50.43;101389.25;5091616;28;20349;-58
2022/07/20 05:12:26;;;;;;;23.67;17.23;;;;;;;24.25;50.96;101379.34;5092449;28;20285;-58
2022/07/20 05:14:51;;;;;;;18.35;15.10;;;;;;;24.18;50.86;101382.78;5092251;28;20028;-59
2022/07/20 05:17:19;;;;;;;20.90;17.47;;;;;;;24.13;51.24;101385.91;5092023;28;20387;-60
2022/07/20 05:19:44;;;;;;;20.98;16.17;;;;;;;24.06;51.31;101391.00;5092465;28;20090;-59
2022/07/20 05:22:10;;;;;;;21.85;17.95;;;;;;;24.05;51.46;101397.31;5091422;28;20057;-59
2022/07/20 05:24:35;;;;;;;18.00;16.20;;;;;;;24.02;52.34;101399.44;5092659;28;20021;-59
2022/07/20 05:27:00;;;;;;;24.10;16.20;;;;;;;23.99;51.81;101411.22;5092267;28;20020;-59
2022/07/20 05:29:25;;;;;;;22.20;16.27;;;;;;;23.98;52.08;101417.53;5091693;28;20463;-59
2022/07/20 05:31:54;;;;;;;20.63;15.98;;;;;;;23.98;51.23;101422.03;5092615;28;20278;-59
2022/07/20 05:34:19;;;;;;;21.70;16.75;;;;;;;24.01;51.73;101424.41;5092230;28;20405;-59
2022/07/20 05:36:44;;;;;;;19.23;16.00;;;;;;;24.02;51.67;101429.56;5091322;28;20031;-59
2022/07/20 05:39:10;;;;;;;19.30;16.17;;;;;;;24.01;51.05;101427.88;5091897;28;20275;-59
2022/07/20 05:41:36;;;;;;;17.33;15.17;;;;;;;24.06;50.58;101438.09;5092529;28;20031;-59
2022/07/20 05:44:01;;;;;;;19.15;15.85;;;;;;;24.06;51.53;101451.41;5091412;28;20307;-59
2022/07/20 05:46:26;;;;;;;20.90;15.68;;;;;;;24.04;51.82;101462.19;5092348;28;20107;-59
2022/07/20 05:48:51;;;;;;;18.83;15.13;;;;;;;24.03;51.74;101465.84;5095912;28;20107;-59
2022/07/20 05:51:17;;;;;;;22.63;14.67;;;;;;;24.05;50.75;101458.56;5094808;28;20038;-59
2022/07/20 05:53:42;;;;;;;18.42;14.27;;;;;;;24.08;51.01;101463.59;5095854;28;20103;-59
2022/07/20 05:56:07;;;;;;;19.00;14.05;;;;;;;24.07;50.68;101474.38;5095903;28;20020;-59
2022/07/20 05:58:33;;;;;;;21.03;15.57;;;;;;;24.07;51.36;101474.38;5095225;28;20011;-59
2022/07/20 06:00:58;;;;;;;17.00;13.65;;;;;;;24.08;49.97;101476.91;5095608;28;20613;-59
2022/07/20 06:03:23;;;;;;;17.13;12.68;;;;;;;24.11;49.79;101488.22;5096072;28;20353;-59
2022/07/20 06:05:49;;;;;;;18.30;12.73;;;;;;;24.08;50.36;101494.69;5094901;28;20027;-58
2022/07/20 06:08:14;;;;;;;15.75;12.38;;;;;;;24.10;51.02;101503.38;5095256;28;20288;-59
2022/07/20 06:10:40;;;;;;;17.27;12.68;;;;;;;24.11;50.51;101509.53;5094522;28;20476;-59
2022/07/20 06:13:05;;;;;;;19.42;12.65;;;;;;;24.10;50.64;101506.03;5094351;28;20104;-59
2022/07/20 06:15:31;;;;;;;16.00;11.50;;;;;;;24.10;50.32;101514.03;5095602;28;20103;-59
2022/07/20 06:17:56;;;;;;;16.55;12.20;;;;;;;24.11;51.16;101523.69;5095317;28;20035;-60
2022/07/20 06:20:23;;;;;;;17.00;11.55;;;;;;;24.12;50.75;101530.69;5094694;28;20034;-60
2022/07/20 06:22:49;;;;;;;15.45;11.23;;;;;;;24.15;51.02;101535.72;5095344;28;20029;-63
2022/07/20 06:25:16;;;;;;;15.55;11.60;;;;;;;24.15;51.68;101542.84;5094137;28;20028;-59
2022/07/20 06:27:42;;;;;;;13.80;11.48;;;;;;;24.17;51.14;101548.88;5095490;28;20104;-59
2022/07/20 06:30:09;;;;;;;16.60;11.98;;;;;;;24.17;50.98;101551.56;5094796;28;20028;-61
2022/07/20 06:32:35;;;;;;;21.25;12.68;;;;;;;24.16;51.09;101555.19;5094028;28;20063;-59
2022/07/20 06:35:00;;;;;;;19.83;11.52;;;;;;;24.16;50.63;101568.50;5094862;28;20054;-59
2022/07/20 06:37:26;;;;;;;16.67;11.05;;;;;;;24.16;50.35;101574.66;5095496;28;20016;-58
2022/07/20 06:39:51;;;;;;;15.95;11.07;;;;;;;24.20;50.09;101588.53;5094157;28;20028;-59
2022/07/20 06:42:20;;;;;;;13.48;10.68;;;;;;;24.22;50.14;101583.91;5094972;28;20395;-59
2022/07/20 06:44:46;;;;;;;19.40;11.43;;;;;;;24.22;50.60;101594.56;5095013;28;20024;-59
2022/07/20 06:47:12;;;;;;;14.45;10.75;;;;;;;24.25;51.06;101591.59;5093952;28;20069;-59
2022/07/20 06:49:43;;;;;;;17.05;11.02;;;;;;;24.23;50.44;101594.41;5094917;28;20066;-60
2022/07/20 06:52:09;;;;;;;15.98;10.68;;;;;;;24.24;50.44;101597.91;5094585;28;20463;-60
2022/07/20 06:54:34;;;;;;;17.55;10.65;;;;;;;24.22;50.80;101598.03;5094082;28;20031;-59
2022/07/20 06:56:59;;;;;;;15.10;10.27;;;;;;;24.22;50.56;101616.69;5094582;28;20016;-59
2022/07/20 06:59:25;;;;;;;19.70;11.63;;;;;;;24.23;50.58;101614.88;5093672;28;20024;-60
2022/07/20 07:01:50;;;;;;;15.00;10.80;;;;;;;24.23;50.71;101618.38;5093952;28;20023;-59
2022/07/20 07:04:16;;;;;;;14.32;11.48;;;;;;;24.24;50.41;101612.06;5094395;28;20486;-60
2022/07/20 07:06:41;;;;;;;16.00;11.15;;;;;;;24.28;50.97;101625.91;5094662;28;20049;-60
2022/07/20 07:09:06;;;;;;;14.88;10.73;;;;;;;24.29;51.17;101611.59;5093615;28;20012;-60
2022/07/20 07:11:32;;;;;;;14.05;10.73;;;;;;;24.32;51.09;101600.66;5094231;28;20036;-60
2022/07/20 07:13:58;;;;;;;18.27;10.45;;;;;;;24.35;51.21;101596.88;5094372;28;20039;-60
2022/07/20 07:16:25;;;;;;;14.40;10.88;;;;;;;24.35;51.13;101592.38;5093677;28;20020;-60
2022/07/20 07:18:50;;;;;;;13.43;10.98;;;;;;;24.40;50.88;101594.59;5094313;28;20031;-60
2022/07/20 07:21:15;;;;;;;14.52;11.38;;;;;;;24.43;50.46;101600.47;5094120;28;20032;-61
2022/07/20 07:23:41;;;;;;;15.20;10.53;;;;;;;24.47;50.95;101609.00;5093530;28;20026;-61
2022/07/20 07:26:10;;;;;;;15.38;11.32;;;;;;;24.51;51.20;101614.88;5094070;28;20276;-63
2022/07/20 07:28:35;;;;;;;13.55;10.48;;;;;;;24.52;50.26;101622.72;5093513;28;20028;-61
2022/07/20 07:31:01;;;;;;;14.18;9.93;;;;;;;24.57;50.21;101624.97;5093917;28;20137;-60
2022/07/20 07:33:27;;;;;;;14.60;10.40;;;;;;;24.60;50.07;101630.00;5094086;28;20471;-60
2022/07/20 07:35:53;;;;;;;15.48;10.43;;;;;;;24.62;50.28;101631.53;5093456;28;20273;-60
2022/07/20 07:38:18;;;;;;;13.52;9.80;;;;;;;24.66;50.14;101649.88;5093945;28;20032;-60
2022/07/20 07:40:44;;;;;;;12.75;10.10;;;;;;;24.68;50.17;101647.91;5094122;28;20017;-60
2022/07/20 07:43:09;;;;;;;11.52;10.00;;;;;;;24.66;50.40;101655.22;5092970;28;20024;-60
2022/07/20 07:45:34;;;;;;;11.30;9.27;;;;;;;24.66;50.36;101658.72;5093864;28;20016;-63
2022/07/20 07:48:00;;;;;;;14.00;9.52;;;;;;;24.68;50.51;101663.91;5093666;28;20074;-62
2022/07/20 07:50:25;;;;;;;10.98;9.02;;;;;;;24.76;50.25;101662.16;5093667;28;20028;-62
2022/07/20 07:52:50;;;;;;;10.73;8.88;;;;;;;24.88;50.22;101660.16;5094851;28;20031;-62
2022/07/20 07:55:15;;;;;;;11.83;9.57;;;;;;;25.01;50.28;101661.59;5093748;28;20024;-61
2022/07/20 07:57:44;;;;;;;13.90;9.27;;;;;;;25.12;49.21;101678.22;5093287;28;20798;-63
2022/07/20 08:00:10;;;;;;;14.00;9.35;;;;;;;25.21;49.36;101662.31;5094155;28;20106;-61
2022/07/20 08:02:41;;;;;;;10.95;8.98;;;;;;;25.26;49.03;101660.00;5093713;28;20032;-61
2022/07/20 08:05:09;;;;;;;14.18;10.05;;;;;;;25.32;48.76;101641.59;5092414;28;20048;-64
2022/07/20 08:07:36;;;;;;;11.00;8.93;;;;;;;25.38;48.54;101644.66;5093417;28;20485;-62
2022/07/20 08:10:05;;;;;;;12.95;8.75;;;;;;;25.42;48.42;101630.84;5093129;28;20032;-61
2022/07/20 08:12:31;;;;;;;13.10;9.07;;;;;;;25.48;48.23;101622.22;5091214;28;20063;-62
2022/07/20 08:14:56;;;;;;;10.73;9.18;;;;;;;25.53;48.49;101616.41;5093230;28;20089;-62
2022/07/20 08:17:21;;;;;;;11.37;9.10;;;;;;;25.56;48.29;101617.94;5093722;28;20024;-62
2022/07/20 08:19:47;;;;;;;13.97;8.87;;;;;;;25.62;47.93;101615.47;5092843;28;20361;-63
2022/07/20 08:22:12;;;;;;;13.63;8.80;;;;;;;25.66;48.08;101621.34;5092945;28;20272;-63
2022/07/20 08:24:37;;;;;;;10.93;8.57;;;;;;;25.69;47.82;101627.22;5093133;28;20108;-63
2022/07/20 08:27:03;;;;;;;9.63;8.53;;;;;;;25.73;47.64;101630.41;5092183;28;20119;-63
2022/07/20 08:29:28;;;;;;;11.63;8.23;;;;;;;25.74;47.77;101637.44;5093180;28;20281;-65
2022/07/20 08:31:54;;;;;;;11.00;8.45;;;;;;;25.76;47.73;101643.44;5092230;28;20410;-62
2022/07/20 08:34:19;;;;;;;10.68;9.00;;;;;;;25.76;47.78;101654.13;5093172;28;20422;-62
2022/07/20 08:36:44;;;;;;;9.90;8.13;;;;;;;25.76;47.43;101658.63;5093080;28;20028;-61
2022/07/20 08:39:10;;;;;;;10.33;8.40;;;;;;;25.77;47.70;101658.47;5092048;28;20714;-62
2022/07/20 08:41:35;;;;;;;12.02;9.02;;;;;;;25.80;47.45;101673.31;5092985;28;20272;-62
2022/07/20 08:44:00;;;;;;;12.05;9.50;;;;;;;25.81;47.73;101673.19;5092662;28;20016;-63
2022/07/20 08:46:29;;;;;;;15.48;10.80;;;;;;;25.81;47.91;101661.66;5092030;28;20069;-61
2022/07/20 08:48:55;;;;;;;12.02;10.57;;;;;;;25.80;47.95;101650.16;5092688;28;20456;-60
2022/07/20 08:51:20;;;;;;;14.65;11.77;;;;;;;25.80;48.35;101659.97;5092680;28;20038;-60
2022/07/20 08:53:49;;;;;;;14.80;12.20;;;;;;;25.81;48.30;101661.66;5092303;28;20020;-61
2022/07/20 08:56:15;;;;;;;17.45;12.30;;;;;;;25.80;48.34;101650.16;5092894;28;20403;-61
2022/07/20 08:58:41;;;;;;;15.77;12.20;;;;;;;25.80;48.51;101644.81;5093042;28;20043;-60
2022/07/20 09:01:13;;;;;;;15.65;12.10;;;;;;;25.79;48.94;101613.75;5091655;28;20039;-60
2022/07/20 09:03:41;;;;;;;15.02;12.23;;;;;;;25.79;49.17;101604.94;5092742;28;20085;-60
2022/07/20 09:06:09;;;;;;;15.32;12.25;;;;;;;25.76;49.06;101616.75;5092506;28;20024;-59
2022/07/20 09:08:34;;;;;;;17.05;12.55;;;;;;;25.76;49.06;101638.09;5092063;28;20134;-59
2022/07/20 09:11:04;;;;;;;15.60;11.93;;;;;;;25.75;49.72;101651.59;5092392;28;20469;-61
2022/07/20 09:13:32;;;;;;;17.15;11.70;;;;;;;25.73;49.82;101657.09;5092360;28;20406;-61
2022/07/20 09:15:58;;;;;;;13.73;12.00;;;;;;;25.71;49.78;101662.59;5091776;28;20120;-61
2022/07/20 09:18:32;;;;;;;16.40;11.98;;;;;;;25.72;50.26;101722.16;5092699;28;20031;-61
2022/07/20 09:21:02;;;;;;;16.85;12.65;;;;;;;25.72;50.18;101735.50;5092343;28;20020;-60
2022/07/20 09:23:33;;;;;;;15.55;12.68;;;;;;;25.72;50.06;101746.19;5095557;28;20376;-60
2022/07/20 09:26:02;;;;;;;14.10;12.05;;;;;;;25.74;49.90;101746.03;5096217;28;20048;-61
2022/07/20 09:28:38;;;;;;;13.90;11.55;;;;;;;25.76;49.78;101752.91;5096725;28;20028;-64
2022/07/20 09:31:09;;;;;;;12.15;10.60;;;;;;;25.77;49.10;101741.25;5096375;28;20028;-64
2022/07/20 09:33:39;;;;;;;15.32;11.70;;;;;;;25.80;49.00;101724.06;5096458;28;20460;-65
2022/07/20 09:36:09;;;;;;;14.45;10.90;;;;;;;25.83;49.00;101713.06;5095349;28;20023;-64
2022/07/20 09:38:39;;;;;;;17.30;11.27;;;;;;;25.84;48.88;101717.44;5096342;28;20020;-62
2022/07/20 09:41:27;;;;;;;12.77;11.10;;;;;;;25.80;48.42;101714.25;5096382;28;20027;-64
2022/07/20 09:43:53;;;;;;;13.48;10.60;;;;;;;25.86;48.75;101710.91;5095536;28;20529;-62
2022/07/20 09:46:23;;;;;;;12.02;10.27;;;;;;;25.89;48.60;101717.78;5095930;28;20028;-64
2022/07/20 09:48:51;;;;;;;12.23;10.60;;;;;;;25.91;48.57;101712.28;5096116;28;20103;-65
2022/07/20 09:51:18;;;;;;;13.77;10.48;;;;;;;25.93;48.23;101707.63;5095182;28;20060;-65
2022/07/20 09:53:44;;;;;;;13.80;11.00;;;;;;;25.97;48.65;101703.69;5095981;28;20498;-63
2022/07/20 09:56:09;;;;;;;12.50;10.60;;;;;;;26.00;48.15;101690.88;5095986;28;20110;-63
2022/07/20 09:58:35;;;;;;;12.00;10.60;;;;;;;26.03;47.92;101695.91;5095555;28;20482;-63
2022/07/20 10:01:01;;;;;;;11.35;9.82;;;;;;;26.04;47.85;101699.38;5095516;28;20020;-66
2022/07/20 10:03:32;;;;;;;13.32;10.77;;;;;;;26.06;48.10;101703.59;5095112;28;20032;-62
2022/07/20 10:05:57;;;;;;;14.35;10.70;;;;;;;26.10;48.12;101711.28;5095890;28;20047;-63
2022/07/20 10:08:23;;;;;;;12.82;10.52;;;;;;;26.11;47.86;101726.34;5095672;28;20463;-64
2022/07/20 10:10:48;;;;;;;16.15;11.07;;;;;;;26.13;48.01;101729.69;5095113;28;20049;-63
2022/07/20 10:13:16;;;;;;;13.07;10.80;;;;;;;26.15;48.22;101727.69;5095395;28;20054;-64
2022/07/20 10:15:52;;;;;;;12.30;10.48;;;;;;;26.17;48.13;101723.88;5095574;28;20017;-64
2022/07/20 10:18:18;;;;;;;12.20;10.20;;;;;;;26.19;48.00;101705.84;5093211;28;20061;-65
2022/07/20 10:20:44;;;;;;;12.40;10.07;;;;;;;26.20;47.64;101715.53;5095592;28;20030;-64
2022/07/20 10:23:15;;;;;;;11.50;10.27;;;;;;;26.22;48.01;101699.34;5095317;28;20028;-65
2022/07/20 10:25:46;;;;;;;13.18;9.45;;;;;;;26.24;47.68;101695.50;5094612;28;20379;-63
2022/07/20 10:28:27;;;;;;;12.27;9.63;;;;;;;26.27;47.78;101701.56;5095227;28;20111;-62
2022/07/20 10:30:54;;;;;;;11.77;9.60;;;;;;;26.29;47.63;101699.56;5095607;28;20074;-64
2022/07/20 10:33:21;;;;;;;10.95;9.80;;;;;;;26.27;47.75;101705.06;5094756;28;20476;-61
2022/07/20 10:35:48;;;;;;;12.38;9.80;;;;;;;26.28;47.67;101704.06;5095386;28;20379;-61
2022/07/20 10:38:21;;;;;;;10.60;9.50;;;;;;;26.31;47.76;101701.09;5094849;28;20020;-62
2022/07/20 10:44:22;;;;;;;11.13;9.93;;;;;;;26.34;47.29;101706.09;5095453;28;20058;-65
2022/07/20 10:46:48;;;;;;;11.13;9.23;;;;;;;26.36;47.66;101701.44;5094395;28;20042;-63
2022/07/20 10:49:14;;;;;;;11.07;9.15;;;;;;;26.39;47.38;101694.91;5094650;28;20099;-63
2022/07/20 10:51:40;;;;;;;11.10;9.45;;;;;;;26.40;47.38;101705.44;5094837;28;20103;-63
2022/07/20 10:54:30;;;;;;;10.60;9.43;;;;;;;26.38;47.21;101694.09;5093929;28;20021;-59
2022/07/20 10:56:57;;;;;;;10.30;9.27;;;;;;;26.38;47.32;101696.75;5094470;28;20416;-59
2022/07/20 10:59:25;;;;;;;11.15;9.40;;;;;;;26.36;47.61;101706.78;5094892;28;20106;-62
2022/07/20 11:01:51;;;;;;;9.85;8.80;;;;;;;26.35;47.41;101701.59;5094080;28;20035;-63
2022/07/20 11:04:16;;;;;;;10.40;8.30;;;;;;;26.34;47.26;101707.94;5094508;28;20020;-63
2022/07/20 11:06:41;;;;;;;11.75;8.60;;;;;;;26.33;47.30;101711.63;5094078;28;20020;-64
2022/07/20 11:09:16;;;;;;;9.50;8.30;;;;;;;26.33;47.18;101717.78;5094426;28;20467;-64
2022/07/20 11:11:42;;;;;;;10.77;7.82;;;;;;;26.31;47.12;101713.59;5094491;28;20039;-62
2022/07/20 11:14:10;;;;;;;8.52;7.03;;;;;;;26.30;47.12;101704.75;5093607;28;20379;-63
2022/07/20 11:16:37;;;;;;;8.90;7.40;;;;;;;26.31;46.74;101694.88;5094423;28;20016;-64
2022/07/20 11:19:05;;;;;;;8.15;7.35;;;;;;;26.30;47.12;101693.22;5094186;28;20024;-66
2022/07/20 11:21:31;;;;;;;9.82;7.82;;;;;;;26.28;47.32;101703.22;5093636;28;20051;-63